sensor_id;sensor_type;location;lat;lon;timestamp;temperature;humidity
11089;DHT22;5598;48.648;8.908;2023-03-01T00:01:17;-3.40;95.70
11089;DHT22;5598;48.648;8.908;2023-03-01T00:03:44;-3.40;95.90
11089;DHT22;5598;48.648;8.908;2023-03-01T00:06:13;-3.50;96.00
11089;DHT22;5598;48.648;8.908;2023-03-01T00:08:40;-3.50;96.00
11089;DHT22;5598;48.648;8.908;2023-03-01T00:11:09;-3.50;96.00
11089;DHT22;5598;48.648;8.908;2023-03-01T00:13:36;-3.60;96.10
11089;DHT22;5598;48.648;8.908;2023-03-01T00:16:04;-3.60;96.30
11089;DHT22;5598;48.648;8.908;2023-03-01T00:18:31;-3.70;96.70
11089;DHT22;5598;48.648;8.908;2023-03-01T00:20:58;-3.70;96.40
11089;DHT22;5598;48.648;8.908;2023-03-01T00:23:26;-3.80;96.40
11089;DHT22;5598;48.648;8.908;2023-03-01T00:25:54;-3.80;96.60
11089;DHT22;5598;48.648;8.908;2023-03-01T00:28:20;-3.80;96.50
11089;DHT22;5598;48.648;8.908;2023-03-01T00:30:47;-3.90;96.50
11089;DHT22;5598;48.648;8.908;2023-03-01T00:33:14;-3.70;97.10
11089;DHT22;5598;48.648;8.908;2023-03-01T00:35:41;-3.70;97.30
11089;DHT22;5598;48.648;8.908;2023-03-01T00:38:08;-3.70;97.40
11089;DHT22;5598;48.648;8.908;2023-03-01T00:40:37;-3.70;97.20
11089;DHT22;5598;48.648;8.908;2023-03-01T00:43:04;-3.80;96.90
11089;DHT22;5598;48.648;8.908;2023-03-01T00:45:32;-3.90;96.70
11089;DHT22;5598;48.648;8.908;2023-03-01T00:47:59;-4.00;96.70
11089;DHT22;5598;48.648;8.908;2023-03-01T00:50:26;-4.00;96.70
11089;DHT22;5598;48.648;8.908;2023-03-01T00:52:53;-4.00;96.90
11089;DHT22;5598;48.648;8.908;2023-03-01T00:55:20;-4.10;96.80
11089;DHT22;5598;48.648;8.908;2023-03-01T00:57:48;-4.10;96.80
11089;DHT22;5598;48.648;8.908;2023-03-01T01:00:16;-4.10;96.80
11089;DHT22;5598;48.648;8.908;2023-03-01T01:02:43;-4.20;96.80
11089;DHT22;5598;48.648;8.908;2023-03-01T01:05:10;-4.20;97.00
11089;DHT22;5598;48.648;8.908;2023-03-01T01:07:37;-3.90;98.10
11089;DHT22;5598;48.648;8.908;2023-03-01T01:10:05;-3.90;98.20
11089;DHT22;5598;48.648;8.908;2023-03-01T01:12:33;-3.90;98.00
11089;DHT22;5598;48.648;8.908;2023-03-01T01:15:01;-4.00;97.80
11089;DHT22;5598;48.648;8.908;2023-03-01T01:17:28;-4.10;97.80
11089;DHT22;5598;48.648;8.908;2023-03-01T01:19:55;-4.20;97.90
11089;DHT22;5598;48.648;8.908;2023-03-01T01:22:21;-4.30;98.00
11089;DHT22;5598;48.648;8.908;2023-03-01T01:24:48;-4.30;98.10
11089;DHT22;5598;48.648;8.908;2023-03-01T01:27:15;-4.30;98.20
11089;DHT22;5598;48.648;8.908;2023-03-01T01:29:42;-4.20;98.60
11089;DHT22;5598;48.648;8.908;2023-03-01T01:32:10;-4.10;98.90
11089;DHT22;5598;48.648;8.908;2023-03-01T01:34:37;-4.20;98.50
11089;DHT22;5598;48.648;8.908;2023-03-01T01:37:03;-4.20;98.60
11089;DHT22;5598;48.648;8.908;2023-03-01T01:39:33;-4.20;98.50
11089;DHT22;5598;48.648;8.908;2023-03-01T01:42:00;-4.20;98.80
11089;DHT22;5598;48.648;8.908;2023-03-01T01:44:28;-4.10;99.10
11089;DHT22;5598;48.648;8.908;2023-03-01T01:46:57;-4.10;99.20
11089;DHT22;5598;48.648;8.908;2023-03-01T01:49:30;-4.00;99.80
11089;DHT22;5598;48.648;8.908;2023-03-01T01:52:04;-3.80;99.90
11089;DHT22;5598;48.648;8.908;2023-03-01T01:54:38;-3.70;99.90
11089;DHT22;5598;48.648;8.908;2023-03-01T01:57:10;-3.60;99.90
11089;DHT22;5598;48.648;8.908;2023-03-01T01:59:38;-3.50;99.90
11089;DHT22;5598;48.648;8.908;2023-03-01T02:02:07;-3.50;99.90
11089;DHT22;5598;48.648;8.908;2023-03-01T02:04:36;-3.50;99.90
11089;DHT22;5598;48.648;8.908;2023-03-01T02:07:06;-3.50;99.90
11089;DHT22;5598;48.648;8.908;2023-03-01T02:09:35;-3.50;99.90
11089;DHT22;5598;48.648;8.908;2023-03-01T02:12:03;-3.50;99.90
11089;DHT22;5598;48.648;8.908;2023-03-01T02:14:30;-3.40;99.90
11089;DHT22;5598;48.648;8.908;2023-03-01T02:16:57;-3.40;99.90
11089;DHT22;5598;48.648;8.908;2023-03-01T02:19:35;-3.40;99.90
11089;DHT22;5598;48.648;8.908;2023-03-01T02:22:13;-3.50;99.90
11089;DHT22;5598;48.648;8.908;2023-03-01T02:24:52;-3.50;99.90
11089;DHT22;5598;48.648;8.908;2023-03-01T02:27:28;-3.50;99.90
11089;DHT22;5598;48.648;8.908;2023-03-01T02:29:58;-3.30;99.90
11089;DHT22;5598;48.648;8.908;2023-03-01T02:32:25;-3.20;99.90
11089;DHT22;5598;48.648;8.908;2023-03-01T02:34:52;-3.00;99.90
11089;DHT22;5598;48.648;8.908;2023-03-01T02:37:19;-2.80;99.90
11089;DHT22;5598;48.648;8.908;2023-03-01T02:39:54;-2.60;99.90
11089;DHT22;5598;48.648;8.908;2023-03-01T02:42:26;-2.50;99.90
11089;DHT22;5598;48.648;8.908;2023-03-01T02:44:53;-2.40;99.90
11089;DHT22;5598;48.648;8.908;2023-03-01T02:47:21;-2.30;99.90
11089;DHT22;5598;48.648;8.908;2023-03-01T02:49:48;-2.20;99.90
11089;DHT22;5598;48.648;8.908;2023-03-01T02:52:34;-2.10;99.90
11089;DHT22;5598;48.648;8.908;2023-03-01T02:55:09;-2.00;99.90
11089;DHT22;5598;48.648;8.908;2023-03-01T02:57:38;-1.90;99.90
11089;DHT22;5598;48.648;8.908;2023-03-01T03:00:08;-1.80;99.90
11089;DHT22;5598;48.648;8.908;2023-03-01T03:02:37;-1.80;99.90
11089;DHT22;5598;48.648;8.908;2023-03-01T03:05:07;-1.70;99.90
11089;DHT22;5598;48.648;8.908;2023-03-01T03:07:35;-1.70;99.90
11089;DHT22;5598;48.648;8.908;2023-03-01T03:10:03;-1.70;99.90
11089;DHT22;5598;48.648;8.908;2023-03-01T03:12:30;-1.60;99.80
11089;DHT22;5598;48.648;8.908;2023-03-01T03:14:57;-1.60;99.60
11089;DHT22;5598;48.648;8.908;2023-03-01T03:17:24;-1.50;99.60
11089;DHT22;5598;48.648;8.908;2023-03-01T03:19:52;-1.50;99.30
11089;DHT22;5598;48.648;8.908;2023-03-01T03:22:18;-1.50;99.20
11089;DHT22;5598;48.648;8.908;2023-03-01T03:24:45;-1.50;99.20
11089;DHT22;5598;48.648;8.908;2023-03-01T03:27:12;-1.50;99.20
11089;DHT22;5598;48.648;8.908;2023-03-01T03:29:39;-1.40;99.20
11089;DHT22;5598;48.648;8.908;2023-03-01T03:32:05;-1.40;99.10
11089;DHT22;5598;48.648;8.908;2023-03-01T03:34:32;-1.40;99.00
11089;DHT22;5598;48.648;8.908;2023-03-01T03:37:00;-1.30;99.10
11089;DHT22;5598;48.648;8.908;2023-03-01T03:39:27;-1.30;99.00
11089;DHT22;5598;48.648;8.908;2023-03-01T03:42:00;-1.30;99.00
11089;DHT22;5598;48.648;8.908;2023-03-01T03:44:27;-1.20;99.00
11089;DHT22;5598;48.648;8.908;2023-03-01T03:46:53;-1.20;98.80
11089;DHT22;5598;48.648;8.908;2023-03-01T03:49:20;-1.20;98.80
11089;DHT22;5598;48.648;8.908;2023-03-01T03:51:47;-1.10;98.80
11089;DHT22;5598;48.648;8.908;2023-03-01T03:54:15;-1.10;98.70
11089;DHT22;5598;48.648;8.908;2023-03-01T03:56:42;-1.10;98.60
11089;DHT22;5598;48.648;8.908;2023-03-01T03:59:09;-1.10;98.60
11089;DHT22;5598;48.648;8.908;2023-03-01T04:01:36;-1.10;98.50
11089;DHT22;5598;48.648;8.908;2023-03-01T04:04:03;-1.00;98.50
11089;DHT22;5598;48.648;8.908;2023-03-01T04:06:30;-1.00;98.50
11089;DHT22;5598;48.648;8.908;2023-03-01T04:08:57;-1.00;98.20
11089;DHT22;5598;48.648;8.908;2023-03-01T04:11:27;-1.00;98.40
11089;DHT22;5598;48.648;8.908;2023-03-01T04:13:56;-1.00;98.50
11089;DHT22;5598;48.648;8.908;2023-03-01T04:16:24;-1.00;98.40
11089;DHT22;5598;48.648;8.908;2023-03-01T04:18:51;-1.00;98.40
11089;DHT22;5598;48.648;8.908;2023-03-01T04:21:19;-0.90;98.40
11089;DHT22;5598;48.648;8.908;2023-03-01T04:23:46;-0.90;98.40
11089;DHT22;5598;48.648;8.908;2023-03-01T04:26:12;-0.90;98.30
11089;DHT22;5598;48.648;8.908;2023-03-01T04:28:41;-0.80;98.20
11089;DHT22;5598;48.648;8.908;2023-03-01T04:31:13;-0.80;98.00
11089;DHT22;5598;48.648;8.908;2023-03-01T04:33:41;-0.90;97.90
11089;DHT22;5598;48.648;8.908;2023-03-01T04:36:10;-0.80;98.10
11089;DHT22;5598;48.648;8.908;2023-03-01T04:38:37;-0.80;98.00
11089;DHT22;5598;48.648;8.908;2023-03-01T04:41:04;-0.90;98.00
11089;DHT22;5598;48.648;8.908;2023-03-01T04:43:31;-0.80;98.10
11089;DHT22;5598;48.648;8.908;2023-03-01T04:46:08;-0.80;98.10
11089;DHT22;5598;48.648;8.908;2023-03-01T04:48:37;-0.80;98.00
11089;DHT22;5598;48.648;8.908;2023-03-01T04:51:04;-0.80;98.10
11089;DHT22;5598;48.648;8.908;2023-03-01T04:53:31;-0.80;98.10
11089;DHT22;5598;48.648;8.908;2023-03-01T04:55:59;-0.80;98.10
11089;DHT22;5598;48.648;8.908;2023-03-01T04:58:27;-0.70;98.10
11089;DHT22;5598;48.648;8.908;2023-03-01T05:00:54;-0.70;98.00
11089;DHT22;5598;48.648;8.908;2023-03-01T05:03:23;-0.70;98.00
11089;DHT22;5598;48.648;8.908;2023-03-01T05:05:53;-0.70;98.00
11089;DHT22;5598;48.648;8.908;2023-03-01T05:08:19;-0.70;97.90
11089;DHT22;5598;48.648;8.908;2023-03-01T05:10:48;-0.60;97.90
11089;DHT22;5598;48.648;8.908;2023-03-01T05:13:16;-0.60;97.90
11089;DHT22;5598;48.648;8.908;2023-03-01T05:15:47;-0.60;97.90
11089;DHT22;5598;48.648;8.908;2023-03-01T05:18:14;-0.60;97.80
11089;DHT22;5598;48.648;8.908;2023-03-01T05:20:42;-0.60;97.80
11089;DHT22;5598;48.648;8.908;2023-03-01T05:23:10;-0.50;97.80
11089;DHT22;5598;48.648;8.908;2023-03-01T05:25:39;-0.50;97.70
11089;DHT22;5598;48.648;8.908;2023-03-01T05:28:07;-0.50;97.60
11089;DHT22;5598;48.648;8.908;2023-03-01T05:30:36;-0.50;97.70
11089;DHT22;5598;48.648;8.908;2023-03-01T05:33:05;-0.50;97.70
11089;DHT22;5598;48.648;8.908;2023-03-01T05:35:38;-0.60;97.70
11089;DHT22;5598;48.648;8.908;2023-03-01T05:38:07;-0.60;97.70
11089;DHT22;5598;48.648;8.908;2023-03-01T05:40:34;-0.60;97.70
11089;DHT22;5598;48.648;8.908;2023-03-01T05:43:01;-0.70;97.60
11089;DHT22;5598;48.648;8.908;2023-03-01T05:45:31;-0.70;97.80
11089;DHT22;5598;48.648;8.908;2023-03-01T05:47:59;-0.70;98.10
11089;DHT22;5598;48.648;8.908;2023-03-01T05:50:27;-0.70;98.10
11089;DHT22;5598;48.648;8.908;2023-03-01T05:52:57;-0.60;98.30
11089;DHT22;5598;48.648;8.908;2023-03-01T05:55:26;-0.60;98.20
11089;DHT22;5598;48.648;8.908;2023-03-01T05:57:53;-0.60;98.20
11089;DHT22;5598;48.648;8.908;2023-03-01T06:00:21;-0.60;98.20
11089;DHT22;5598;48.648;8.908;2023-03-01T06:02:49;-0.60;98.00
11089;DHT22;5598;48.648;8.908;2023-03-01T06:05:18;-0.60;98.20
11089;DHT22;5598;48.648;8.908;2023-03-01T06:07:45;-0.60;98.20
11089;DHT22;5598;48.648;8.908;2023-03-01T06:10:12;-0.60;98.10
11089;DHT22;5598;48.648;8.908;2023-03-01T06:12:41;-0.60;98.10
11089;DHT22;5598;48.648;8.908;2023-03-01T06:15:10;-0.60;98.00
11089;DHT22;5598;48.648;8.908;2023-03-01T06:17:39;-0.60;98.00
11089;DHT22;5598;48.648;8.908;2023-03-01T06:20:10;-0.60;98.20
11089;DHT22;5598;48.648;8.908;2023-03-01T06:22:37;-0.50;98.20
11089;DHT22;5598;48.648;8.908;2023-03-01T06:25:05;-0.50;98.10
11089;DHT22;5598;48.648;8.908;2023-03-01T06:27:32;-0.50;98.10
11089;DHT22;5598;48.648;8.908;2023-03-01T06:30:00;-0.40;98.20
11089;DHT22;5598;48.648;8.908;2023-03-01T06:32:27;-0.40;98.00
11089;DHT22;5598;48.648;8.908;2023-03-01T06:34:54;-0.40;98.20
11089;DHT22;5598;48.648;8.908;2023-03-01T06:37:20;-0.30;98.10
11089;DHT22;5598;48.648;8.908;2023-03-01T06:39:47;-0.30;98.20
11089;DHT22;5598;48.648;8.908;2023-03-01T06:42:14;-0.20;98.10
11089;DHT22;5598;48.648;8.908;2023-03-01T06:44:42;-0.20;97.90
11089;DHT22;5598;48.648;8.908;2023-03-01T06:47:10;-0.20;97.90
11089;DHT22;5598;48.648;8.908;2023-03-01T06:49:37;-0.20;97.80
11089;DHT22;5598;48.648;8.908;2023-03-01T06:52:04;-0.10;97.80
11089;DHT22;5598;48.648;8.908;2023-03-01T06:54:30;-0.10;97.70
11089;DHT22;5598;48.648;8.908;2023-03-01T06:56:57;0.00;97.60
11089;DHT22;5598;48.648;8.908;2023-03-01T06:59:24;0.10;97.60
11089;DHT22;5598;48.648;8.908;2023-03-01T07:01:51;0.10;97.50
11089;DHT22;5598;48.648;8.908;2023-03-01T07:04:19;0.10;97.50
11089;DHT22;5598;48.648;8.908;2023-03-01T07:06:46;0.10;97.50
11089;DHT22;5598;48.648;8.908;2023-03-01T07:09:19;0.20;97.60
11089;DHT22;5598;48.648;8.908;2023-03-01T07:11:47;0.90;98.30
11089;DHT22;5598;48.648;8.908;2023-03-01T07:14:14;1.60;97.60
11089;DHT22;5598;48.648;8.908;2023-03-01T07:16:41;2.20;96.20
11089;DHT22;5598;48.648;8.908;2023-03-01T07:19:08;2.90;95.30
11089;DHT22;5598;48.648;8.908;2023-03-01T07:21:36;3.60;93.80
11089;DHT22;5598;48.648;8.908;2023-03-01T07:24:04;4.30;92.70
11089;DHT22;5598;48.648;8.908;2023-03-01T07:26:31;5.00;91.70
11089;DHT22;5598;48.648;8.908;2023-03-01T07:28:59;5.60;90.30
11089;DHT22;5598;48.648;8.908;2023-03-01T07:31:26;6.20;88.30
11089;DHT22;5598;48.648;8.908;2023-03-01T07:33:53;6.90;87.70
11089;DHT22;5598;48.648;8.908;2023-03-01T07:36:20;7.30;83.50
11089;DHT22;5598;48.648;8.908;2023-03-01T07:38:48;7.70;82.40
11089;DHT22;5598;48.648;8.908;2023-03-01T07:41:15;8.20;82.00
11089;DHT22;5598;48.648;8.908;2023-03-01T07:43:42;8.60;80.00
11089;DHT22;5598;48.648;8.908;2023-03-01T07:46:09;8.90;78.60
11089;DHT22;5598;48.648;8.908;2023-03-01T07:48:36;9.50;76.90
11089;DHT22;5598;48.648;8.908;2023-03-01T07:51:04;10.00;74.40
11089;DHT22;5598;48.648;8.908;2023-03-01T07:53:32;10.30;73.20
11089;DHT22;5598;48.648;8.908;2023-03-01T07:56:05;10.50;71.70
11089;DHT22;5598;48.648;8.908;2023-03-01T07:58:34;10.90;70.30
11089;DHT22;5598;48.648;8.908;2023-03-01T08:01:02;11.10;68.90
11089;DHT22;5598;48.648;8.908;2023-03-01T08:03:29;11.30;68.50
11089;DHT22;5598;48.648;8.908;2023-03-01T08:05:55;11.40;67.70
11089;DHT22;5598;48.648;8.908;2023-03-01T08:08:22;11.70;68.90
11089;DHT22;5598;48.648;8.908;2023-03-01T08:10:49;11.90;67.70
11089;DHT22;5598;48.648;8.908;2023-03-01T08:13:17;12.20;67.10
11089;DHT22;5598;48.648;8.908;2023-03-01T08:15:47;12.20;64.90
11089;DHT22;5598;48.648;8.908;2023-03-01T08:18:14;11.30;65.30
11089;DHT22;5598;48.648;8.908;2023-03-01T08:20:41;10.10;67.80
11089;DHT22;5598;48.648;8.908;2023-03-01T08:23:08;8.80;69.90
11089;DHT22;5598;48.648;8.908;2023-03-01T08:25:34;7.70;73.80
11089;DHT22;5598;48.648;8.908;2023-03-01T08:28:01;7.00;75.10
11089;DHT22;5598;48.648;8.908;2023-03-01T08:30:30;6.40;77.10
11089;DHT22;5598;48.648;8.908;2023-03-01T08:32:56;6.00;78.20
11089;DHT22;5598;48.648;8.908;2023-03-01T08:35:23;5.80;79.20
11089;DHT22;5598;48.648;8.908;2023-03-01T08:37:50;5.60;80.10
11089;DHT22;5598;48.648;8.908;2023-03-01T08:40:17;5.50;80.50
11089;DHT22;5598;48.648;8.908;2023-03-01T08:42:44;5.30;81.40
11089;DHT22;5598;48.648;8.908;2023-03-01T08:45:11;5.30;82.40
11089;DHT22;5598;48.648;8.908;2023-03-01T08:47:40;5.30;82.50
11089;DHT22;5598;48.648;8.908;2023-03-01T08:50:08;5.40;82.50
11089;DHT22;5598;48.648;8.908;2023-03-01T08:52:35;5.50;81.90
11089;DHT22;5598;48.648;8.908;2023-03-01T08:55:02;5.60;82.50
11089;DHT22;5598;48.648;8.908;2023-03-01T08:57:29;5.80;82.50
11089;DHT22;5598;48.648;8.908;2023-03-01T08:59:56;6.30;81.60
11089;DHT22;5598;48.648;8.908;2023-03-01T09:02:23;7.60;79.60
11089;DHT22;5598;48.648;8.908;2023-03-01T09:04:51;8.70;75.70
11089;DHT22;5598;48.648;8.908;2023-03-01T09:07:18;9.80;72.80
11089;DHT22;5598;48.648;8.908;2023-03-01T09:09:44;10.50;67.60
11089;DHT22;5598;48.648;8.908;2023-03-01T09:12:11;10.40;65.70
11089;DHT22;5598;48.648;8.908;2023-03-01T09:14:38;10.10;66.60
11089;DHT22;5598;48.648;8.908;2023-03-01T09:17:06;10.50;65.40
11089;DHT22;5598;48.648;8.908;2023-03-01T09:19:33;11.10;65.90
11089;DHT22;5598;48.648;8.908;2023-03-01T09:22:02;11.00;63.30
11089;DHT22;5598;48.648;8.908;2023-03-01T09:24:29;9.80;66.30
11089;DHT22;5598;48.648;8.908;2023-03-01T09:26:56;9.60;68.30
11089;DHT22;5598;48.648;8.908;2023-03-01T09:29:23;8.90;68.30
11089;DHT22;5598;48.648;8.908;2023-03-01T09:31:51;9.00;70.30
11089;DHT22;5598;48.648;8.908;2023-03-01T09:34:20;9.80;68.90
11089;DHT22;5598;48.648;8.908;2023-03-01T09:36:49;10.90;65.90
11089;DHT22;5598;48.648;8.908;2023-03-01T09:39:17;11.20;64.80
11089;DHT22;5598;48.648;8.908;2023-03-01T09:41:49;11.30;63.80
11089;DHT22;5598;48.648;8.908;2023-03-01T09:44:31;11.60;63.20
11089;DHT22;5598;48.648;8.908;2023-03-01T09:47:01;11.20;61.50
11089;DHT22;5598;48.648;8.908;2023-03-01T09:49:30;10.80;63.00
11089;DHT22;5598;48.648;8.908;2023-03-01T09:52:01;11.30;63.70
11089;DHT22;5598;48.648;8.908;2023-03-01T09:54:31;11.70;63.30
11089;DHT22;5598;48.648;8.908;2023-03-01T09:57:17;12.60;61.70
11089;DHT22;5598;48.648;8.908;2023-03-01T09:59:58;12.60;59.70
11089;DHT22;5598;48.648;8.908;2023-03-01T10:02:35;12.20;60.40
11089;DHT22;5598;48.648;8.908;2023-03-01T10:05:12;11.90;60.90
11089;DHT22;5598;48.648;8.908;2023-03-01T10:07:44;12.60;63.00
11089;DHT22;5598;48.648;8.908;2023-03-01T10:10:25;13.30;60.30
11089;DHT22;5598;48.648;8.908;2023-03-01T10:12:53;13.80;59.40
11089;DHT22;5598;48.648;8.908;2023-03-01T10:15:28;14.60;57.60
11089;DHT22;5598;48.648;8.908;2023-03-01T10:18:01;15.30;57.20
11089;DHT22;5598;48.648;8.908;2023-03-01T10:20:40;16.20;57.60
11089;DHT22;5598;48.648;8.908;2023-03-01T10:23:09;16.10;55.50
11089;DHT22;5598;48.648;8.908;2023-03-01T10:25:47;15.30;54.10
11089;DHT22;5598;48.648;8.908;2023-03-01T10:28:24;14.10;55.90
11089;DHT22;5598;48.648;8.908;2023-03-01T10:30:53;12.50;56.90
11089;DHT22;5598;48.648;8.908;2023-03-01T10:33:23;11.60;58.80
11089;DHT22;5598;48.648;8.908;2023-03-01T10:35:50;11.90;60.90
11089;DHT22;5598;48.648;8.908;2023-03-01T10:38:19;12.90;58.40
11089;DHT22;5598;48.648;8.908;2023-03-01T10:40:55;13.00;57.50
11089;DHT22;5598;48.648;8.908;2023-03-01T10:43:24;13.20;57.00
11089;DHT22;5598;48.648;8.908;2023-03-01T10:45:52;13.40;57.70
11089;DHT22;5598;48.648;8.908;2023-03-01T10:48:20;13.80;58.30
11089;DHT22;5598;48.648;8.908;2023-03-01T10:50:50;14.80;56.70
11089;DHT22;5598;48.648;8.908;2023-03-01T10:53:24;13.90;55.60
11089;DHT22;5598;48.648;8.908;2023-03-01T10:56:00;12.50;57.90
11089;DHT22;5598;48.648;8.908;2023-03-01T10:58:28;12.30;58.40
11089;DHT22;5598;48.648;8.908;2023-03-01T11:00:56;12.80;58.70
11089;DHT22;5598;48.648;8.908;2023-03-01T11:03:26;13.90;56.70
11089;DHT22;5598;48.648;8.908;2023-03-01T11:05:57;14.10;56.50
11089;DHT22;5598;48.648;8.908;2023-03-01T11:08:42;15.30;56.60
11089;DHT22;5598;48.648;8.908;2023-03-01T11:11:32;16.40;56.00
11089;DHT22;5598;48.648;8.908;2023-03-01T11:14:01;17.00;54.40
11089;DHT22;5598;48.648;8.908;2023-03-01T11:16:32;17.70;53.20
11089;DHT22;5598;48.648;8.908;2023-03-01T11:19:13;18.10;52.70
11089;DHT22;5598;48.648;8.908;2023-03-01T11:21:44;18.50;50.60
11089;DHT22;5598;48.648;8.908;2023-03-01T11:24:15;18.40;51.60
11089;DHT22;5598;48.648;8.908;2023-03-01T11:26:47;18.70;52.60
11089;DHT22;5598;48.648;8.908;2023-03-01T11:29:26;18.60;50.00
11089;DHT22;5598;48.648;8.908;2023-03-01T11:31:57;18.50;49.20
11089;DHT22;5598;48.648;8.908;2023-03-01T11:34:36;18.50;51.90
11089;DHT22;5598;48.648;8.908;2023-03-01T11:37:13;18.90;50.60
11089;DHT22;5598;48.648;8.908;2023-03-01T11:39:47;18.80;49.40
11089;DHT22;5598;48.648;8.908;2023-03-01T11:42:22;18.40;50.20
11089;DHT22;5598;48.648;8.908;2023-03-01T11:44:54;17.80;51.40
11089;DHT22;5598;48.648;8.908;2023-03-01T11:47:32;17.30;50.30
11089;DHT22;5598;48.648;8.908;2023-03-01T11:50:16;17.70;52.40
11089;DHT22;5598;48.648;8.908;2023-03-01T11:52:55;18.50;52.70
11089;DHT22;5598;48.648;8.908;2023-03-01T11:55:30;19.50;51.40
11089;DHT22;5598;48.648;8.908;2023-03-01T11:58:19;20.00;50.00
11089;DHT22;5598;48.648;8.908;2023-03-01T12:01:01;20.30;48.50
11089;DHT22;5598;48.648;8.908;2023-03-01T12:06:52;20.60;47.10
11089;DHT22;5598;48.648;8.908;2023-03-01T12:09:38;20.60;48.80
11089;DHT22;5598;48.648;8.908;2023-03-01T12:12:30;20.80;48.50
11089;DHT22;5598;48.648;8.908;2023-03-01T12:15:23;20.70;48.20
11089;DHT22;5598;48.648;8.908;2023-03-01T12:18:16;20.80;46.70
11089;DHT22;5598;48.648;8.908;2023-03-01T12:20:56;20.50;46.50
11089;DHT22;5598;48.648;8.908;2023-03-01T12:23:45;20.30;48.70
11089;DHT22;5598;48.648;8.908;2023-03-01T12:26:23;20.70;46.00
11089;DHT22;5598;48.648;8.908;2023-03-01T12:29:10;21.00;45.80
11089;DHT22;5598;48.648;8.908;2023-03-01T12:35:17;21.10;45.40
11089;DHT22;5598;48.648;8.908;2023-03-01T12:37:56;20.80;44.50
11089;DHT22;5598;48.648;8.908;2023-03-01T12:40:45;20.60;46.60
11089;DHT22;5598;48.648;8.908;2023-03-01T12:43:22;20.70;46.10
11089;DHT22;5598;48.648;8.908;2023-03-01T12:46:01;20.40;45.80
11089;DHT22;5598;48.648;8.908;2023-03-01T12:48:40;20.00;45.40
11089;DHT22;5598;48.648;8.908;2023-03-01T12:51:13;19.20;46.00
11089;DHT22;5598;48.648;8.908;2023-03-01T12:53:43;18.90;48.00
11089;DHT22;5598;48.648;8.908;2023-03-01T12:56:14;18.90;49.10
11089;DHT22;5598;48.648;8.908;2023-03-01T12:58:49;18.70;48.90
11089;DHT22;5598;48.648;8.908;2023-03-01T13:01:31;18.30;47.80
11089;DHT22;5598;48.648;8.908;2023-03-01T13:04:15;18.00;49.40
11089;DHT22;5598;48.648;8.908;2023-03-01T13:06:50;18.10;49.70
11089;DHT22;5598;48.648;8.908;2023-03-01T13:09:24;18.30;49.00
11089;DHT22;5598;48.648;8.908;2023-03-01T13:11:55;18.20;47.90
11089;DHT22;5598;48.648;8.908;2023-03-01T13:14:44;17.70;48.80
11089;DHT22;5598;48.648;8.908;2023-03-01T13:17:33;17.20;49.10
11089;DHT22;5598;48.648;8.908;2023-03-01T13:20:01;16.70;49.30
11089;DHT22;5598;48.648;8.908;2023-03-01T13:22:32;16.20;49.60
11089;DHT22;5598;48.648;8.908;2023-03-01T13:25:11;15.50;50.10
11089;DHT22;5598;48.648;8.908;2023-03-01T13:27:39;15.60;51.50
11089;DHT22;5598;48.648;8.908;2023-03-01T13:30:40;15.90;51.70
11089;DHT22;5598;48.648;8.908;2023-03-01T13:33:44;15.80;50.00
11089;DHT22;5598;48.648;8.908;2023-03-01T13:36:45;15.40;50.70
11089;DHT22;5598;48.648;8.908;2023-03-01T13:39:28;15.20;51.20
11089;DHT22;5598;48.648;8.908;2023-03-01T13:41:58;15.00;51.30
11089;DHT22;5598;48.648;8.908;2023-03-01T13:44:30;14.80;51.60
11089;DHT22;5598;48.648;8.908;2023-03-01T13:47:02;14.60;53.30
11089;DHT22;5598;48.648;8.908;2023-03-01T13:49:45;14.40;53.00
11089;DHT22;5598;48.648;8.908;2023-03-01T13:52:35;14.20;53.90
11089;DHT22;5598;48.648;8.908;2023-03-01T13:55:04;13.90;53.00
11089;DHT22;5598;48.648;8.908;2023-03-01T13:57:34;13.50;54.80
11089;DHT22;5598;48.648;8.908;2023-03-01T14:00:02;13.50;56.00
11089;DHT22;5598;48.648;8.908;2023-03-01T14:02:30;13.60;55.80
11089;DHT22;5598;48.648;8.908;2023-03-01T14:04:57;13.60;54.90
11089;DHT22;5598;48.648;8.908;2023-03-01T14:07:26;13.70;55.20
11089;DHT22;5598;48.648;8.908;2023-03-01T14:09:56;13.40;53.90
11089;DHT22;5598;48.648;8.908;2023-03-01T14:12:36;13.00;55.20
11089;DHT22;5598;48.648;8.908;2023-03-01T14:15:09;12.90;56.30
11089;DHT22;5598;48.648;8.908;2023-03-01T14:17:49;12.90;57.10
11089;DHT22;5598;48.648;8.908;2023-03-01T14:20:20;12.90;57.10
11089;DHT22;5598;48.648;8.908;2023-03-01T14:22:51;12.90;56.90
11089;DHT22;5598;48.648;8.908;2023-03-01T14:25:29;12.90;56.40
11089;DHT22;5598;48.648;8.908;2023-03-01T14:28:03;12.90;56.70
11089;DHT22;5598;48.648;8.908;2023-03-01T14:30:34;12.80;57.20
11089;DHT22;5598;48.648;8.908;2023-03-01T14:33:03;12.70;56.90
11089;DHT22;5598;48.648;8.908;2023-03-01T14:35:32;12.60;57.60
11089;DHT22;5598;48.648;8.908;2023-03-01T14:38:01;12.40;57.20
11089;DHT22;5598;48.648;8.908;2023-03-01T14:40:30;12.20;57.30
11089;DHT22;5598;48.648;8.908;2023-03-01T14:42:59;12.10;58.70
11089;DHT22;5598;48.648;8.908;2023-03-01T14:45:29;12.10;58.20
11089;DHT22;5598;48.648;8.908;2023-03-01T14:47:59;12.10;58.30
11089;DHT22;5598;48.648;8.908;2023-03-01T14:50:28;12.00;58.40
11089;DHT22;5598;48.648;8.908;2023-03-01T14:52:58;11.80;58.40
11089;DHT22;5598;48.648;8.908;2023-03-01T14:55:30;11.70;59.00
11089;DHT22;5598;48.648;8.908;2023-03-01T14:57:57;11.70;59.80
11089;DHT22;5598;48.648;8.908;2023-03-01T15:00:27;11.60;58.00
11089;DHT22;5598;48.648;8.908;2023-03-01T15:02:56;11.50;59.10
11089;DHT22;5598;48.648;8.908;2023-03-01T15:05:29;11.40;59.80
11089;DHT22;5598;48.648;8.908;2023-03-01T15:08:00;11.30;60.00
11089;DHT22;5598;48.648;8.908;2023-03-01T15:10:31;11.10;58.90
11089;DHT22;5598;48.648;8.908;2023-03-01T15:13:10;10.80;59.10
11089;DHT22;5598;48.648;8.908;2023-03-01T15:15:39;10.70;58.60
11089;DHT22;5598;48.648;8.908;2023-03-01T15:18:17;10.60;58.90
11089;DHT22;5598;48.648;8.908;2023-03-01T15:20:44;10.30;59.20
11089;DHT22;5598;48.648;8.908;2023-03-01T15:23:19;10.20;62.20
11089;DHT22;5598;48.648;8.908;2023-03-01T15:25:48;10.20;60.70
11089;DHT22;5598;48.648;8.908;2023-03-01T15:28:23;10.20;60.50
11089;DHT22;5598;48.648;8.908;2023-03-01T15:30:54;10.10;61.50
11089;DHT22;5598;48.648;8.908;2023-03-01T15:33:31;10.10;62.20
11089;DHT22;5598;48.648;8.908;2023-03-01T15:35:59;10.00;61.90
11089;DHT22;5598;48.648;8.908;2023-03-01T15:38:34;10.00;62.70
11089;DHT22;5598;48.648;8.908;2023-03-01T15:41:21;9.80;63.90
11089;DHT22;5598;48.648;8.908;2023-03-01T15:43:48;9.70;62.50
11089;DHT22;5598;48.648;8.908;2023-03-01T15:46:18;9.60;63.20
11089;DHT22;5598;48.648;8.908;2023-03-01T15:48:47;9.50;63.90
11089;DHT22;5598;48.648;8.908;2023-03-01T15:51:16;9.50;65.00
11089;DHT22;5598;48.648;8.908;2023-03-01T15:53:47;9.50;65.30
11089;DHT22;5598;48.648;8.908;2023-03-01T15:56:16;9.40;65.60
11089;DHT22;5598;48.648;8.908;2023-03-01T15:58:42;9.40;65.00
11089;DHT22;5598;48.648;8.908;2023-03-01T16:01:12;9.30;65.80
11089;DHT22;5598;48.648;8.908;2023-03-01T16:03:39;9.20;66.00
11089;DHT22;5598;48.648;8.908;2023-03-01T16:06:09;9.10;65.20
11089;DHT22;5598;48.648;8.908;2023-03-01T16:08:36;9.00;65.80
11089;DHT22;5598;48.648;8.908;2023-03-01T16:11:04;8.90;66.00
11089;DHT22;5598;48.648;8.908;2023-03-01T16:13:32;8.70;66.50
11089;DHT22;5598;48.648;8.908;2023-03-01T16:15:59;8.70;66.40